Time,TemperatureF,DewpointF,PressureIn,WindDirection,WindDirectionDegrees,WindSpeedMPH,WindSpeedGustMPH,Humidity,HourlyPrecipIn,Conditions,Clouds,dailyrainin,SoftwareType,DateUTC
2013-03-04 00:01:00,31.0,21.0,29.70,NNW,348,3.0,13.0,66,0.00,,,0.00,,2013-03-04 05:01:00,
2013-03-04 00:11:00,31.0,21.0,29.70,NNW,348,3.0,13.0,66,0.00,,,0.00,,2013-03-04 05:11:00,
2013-03-04 00:22:00,31.0,21.0,29.71,NNE,26,2.0,6.0,67,0.00,,,0.00,,2013-03-04 05:22:00,
2013-03-04 00:32:00,31.0,21.0,29.71,NNW,342,3.0,7.0,67,0.00,,,0.00,,2013-03-04 05:32:00,
2013-03-04 00:42:00,31.0,21.0,29.72,NNW,342,4.0,11.0,67,0.00,,,0.00,,2013-03-04 05:42:00,
2013-03-04 00:52:00,31.0,21.0,29.72,NNW,342,4.0,11.0,67,0.00,,,0.00,,2013-03-04 05:52:00,
2013-03-04 01:02:00,31.0,22.0,29.72,North,360,4.0,10.0,68,0.00,,,0.00,,2013-03-04 06:02:00,
2013-03-04 01:11:00,31.0,22.0,29.72,North,360,4.0,10.0,68,0.00,,,0.00,,2013-03-04 06:11:00,
2013-03-04 01:22:00,31.0,22.0,29.72,NNW,337,3.0,13.0,70,0.00,,,0.00,,2013-03-04 06:22:00,
2013-03-04 01:32:00,31.0,22.0,29.72,NNW,344,2.0,10.0,70,0.00,,,0.00,,2013-03-04 06:32:00,
2013-03-04 01:42:00,31.0,22.0,29.72,NNW,344,2.0,10.0,70,0.00,,,0.00,,2013-03-04 06:42:00,
2013-03-04 01:52:00,31.0,22.0,29.72,North,359,6.0,11.0,70,0.00,,,0.00,,2013-03-04 06:52:00,
2013-03-04 02:01:00,31.0,22.0,29.72,NNW,340,4.0,11.0,69,0.00,,,0.00,,2013-03-04 07:01:00,
2013-03-04 02:11:00,31.0,22.0,29.72,NNW,340,4.0,11.0,69,0.00,,,0.00,,2013-03-04 07:11:00,
2013-03-04 02:22:00,30.0,21.0,29.72,North,353,2.0,9.0,69,0.00,,,0.00,,2013-03-04 07:22:00,
2013-03-04 02:32:00,30.0,22.0,29.72,NNW,343,3.0,8.0,71,0.00,,,0.00,,2013-03-04 07:32:00,
2013-03-04 02:42:00,30.0,22.0,29.72,NNW,343,3.0,8.0,71,0.00,,,0.00,,2013-03-04 07:42:00,
2013-03-04 02:52:00,30.0,22.0,29.72,NNW,341,1.0,9.0,71,0.00,,,0.00,,2013-03-04 07:52:00,
2013-03-04 03:02:00,30.0,22.0,29.72,North,349,3.0,6.0,71,0.00,,,0.00,,2013-03-04 08:02:00,
2013-03-04 03:11:00,29.0,20.0,29.72,North,358,2.0,7.0,70,0.00,,,0.00,,2013-03-04 08:11:00,
2013-03-04 03:22:00,29.0,20.0,29.72,North,358,2.0,7.0,70,0.00,,,0.00,,2013-03-04 08:22:00,
2013-03-04 03:32:00,29.0,20.0,29.72,NNW,345,1.0,6.0,70,0.00,,,0.00,,2013-03-04 08:32:00,
2013-03-04 03:42:00,29.0,20.0,29.72,NNW,345,1.0,6.0,70,0.00,,,0.00,,2013-03-04 08:42:00,
2013-03-04 03:52:00,29.0,20.0,29.72,NNW,327,2.0,11.0,68,0.00,,,0.00,,2013-03-04 08:52:00,
2013-03-04 04:02:00,28.0,18.0,29.72,North,359,3.0,20.0,67,0.00,,,0.00,,2013-03-04 09:02:00,
2013-03-04 04:11:00,28.0,18.0,29.72,North,359,3.0,20.0,67,0.00,,,0.00,,2013-03-04 09:11:00,
2013-03-04 04:22:00,28.0,18.0,29.73,NNW,342,3.0,12.0,67,0.00,,,0.00,,2013-03-04 09:22:00,
2013-03-04 04:32:00,28.0,19.0,29.74,North,0,0.0,7.0,68,0.00,,,0.00,,2013-03-04 09:32:00,
2013-03-04 04:42:00,28.0,19.0,29.74,North,0,0.0,7.0,68,0.00,,,0.00,,2013-03-04 09:42:00,
2013-03-04 04:52:00,28.0,19.0,29.74,NNW,346,2.0,10.0,69,0.00,,,0.00,,2013-03-04 09:52:00,
2013-03-04 05:01:00,28.0,20.0,29.74,NNW,345,2.0,7.0,70,0.00,,,0.00,,2013-03-04 10:01:00,
2013-03-04 05:11:00,28.0,20.0,29.74,NNW,345,2.0,7.0,70,0.00,,,0.00,,2013-03-04 10:11:00,
2013-03-04 05:22:00,28.0,20.0,29.74,NNW,340,3.0,10.0,70,0.00,,,0.00,,2013-03-04 10:22:00,
2013-03-04 05:32:00,27.0,19.0,29.75,NNW,340,3.0,7.0,70,0.00,,,0.00,,2013-03-04 10:32:00,
2013-03-04 05:42:00,27.0,19.0,29.75,North,353,1.0,6.0,71,0.00,,,0.00,,2013-03-04 10:42:00,
2013-03-04 05:52:00,27.0,19.0,29.75,North,353,1.0,6.0,71,0.00,,,0.00,,2013-03-04 10:52:00,
2013-03-04 06:02:00,27.0,19.0,29.76,North,351,3.0,9.0,71,0.00,,,0.00,,2013-03-04 11:02:00,
2013-03-04 06:11:00,27.0,19.0,29.76,North,351,3.0,9.0,71,0.00,,,0.00,,2013-03-04 11:11:00,
2013-03-04 06:22:00,27.0,19.0,29.77,North,0,0.0,9.0,71,0.00,,,0.00,,2013-03-04 11:22:00,
2013-03-04 06:32:00,27.0,19.0,29.76,North,352,1.0,9.0,71,0.00,,,0.00,,2013-03-04 11:32:00,
2013-03-04 06:42:00,27.0,19.0,29.76,North,352,1.0,9.0,71,0.00,,,0.00,,2013-03-04 11:42:00,
2013-03-04 06:52:00,27.0,19.0,29.76,NNW,333,2.0,8.0,71,0.00,,,0.00,,2013-03-04 11:52:00,
2013-03-04 07:01:00,27.0,19.0,29.77,North,0,0.0,11.0,72,0.00,,,0.00,,2013-03-04 12:01:00,
2013-03-04 07:11:00,27.0,19.0,29.78,NNW,346,4.0,12.0,72,0.00,,,0.00,,2013-03-04 12:11:00,
2013-03-04 07:22:00,27.0,19.0,29.78,NNW,346,4.0,12.0,72,0.00,,,0.00,,2013-03-04 12:22:00,
2013-03-04 07:32:00,27.0,19.0,29.78,NNW,343,2.0,9.0,72,0.00,,,0.00,,2013-03-04 12:32:00,
2013-03-04 07:42:00,27.0,19.0,29.78,NNW,343,2.0,9.0,72,0.00,,,0.00,,2013-03-04 12:42:00,
2013-03-04 07:53:00,27.0,19.0,29.77,NNW,341,5.0,10.0,72,0.00,,,0.00,,2013-03-04 12:53:00,
2013-03-04 08:02:00,28.0,20.0,29.78,North,0,0.0,10.0,72,0.00,,,0.00,,2013-03-04 13:02:00,
2013-03-04 08:11:00,28.0,20.0,29.78,North,0,0.0,10.0,72,0.00,,,0.00,,2013-03-04 13:11:00,
2013-03-04 08:21:00,28.0,20.0,29.78,North,352,6.0,15.0,71,0.00,,,0.00,,2013-03-04 13:21:00,
2013-03-04 08:32:00,29.0,20.0,29.79,NNW,340,5.0,12.0,68,0.00,,,0.00,,2013-03-04 13:32:00,
2013-03-04 08:42:00,29.0,20.0,29.79,NNW,340,5.0,12.0,68,0.00,,,0.00,,2013-03-04 13:42:00,
2013-03-04 08:52:00,29.0,20.0,29.80,North,351,4.0,12.0,68,0.00,,,0.00,,2013-03-04 13:52:00,
2013-03-04 09:01:00,29.0,20.0,29.79,NNW,345,4.0,9.0,68,0.00,,,0.00,,2013-03-04 14:01:00,
2013-03-04 09:11:00,29.0,20.0,29.79,NNW,345,4.0,9.0,68,0.00,,,0.00,,2013-03-04 14:11:00,
2013-03-04 09:22:00,30.0,20.0,29.79,North,355,6.0,13.0,66,0.00,,,0.00,,2013-03-04 14:22:00,
2013-03-04 09:32:00,30.0,20.0,29.79,NNW,342,6.0,11.0,65,0.00,,,0.00,,2013-03-04 14:32:00,
2013-03-04 09:42:00,30.0,20.0,29.79,NNW,342,6.0,11.0,65,0.00,,,0.00,,2013-03-04 14:42:00,
2013-03-04 09:52:00,31.0,21.0,29.79,NNW,346,5.0,14.0,65,0.00,,,0.00,,2013-03-04 14:52:00,
2013-03-04 10:01:00,32.0,20.0,29.80,NNW,338,8.0,17.0,62,0.00,,,0.00,,2013-03-04 15:01:00,
2013-03-04 10:11:00,32.0,20.0,29.80,NNW,338,8.0,17.0,62,0.00,,,0.00,,2013-03-04 15:11:00,
2013-03-04 10:22:00,32.0,21.0,29.79,NNW,345,4.0,16.0,63,0.00,,,0.00,,2013-03-04 15:22:00,
2013-03-04 10:32:00,32.0,21.0,29.80,North,353,8.0,18.0,64,0.00,,,0.00,,2013-03-04 15:32:00,
2013-03-04 10:42:00,32.0,21.0,29.80,North,353,8.0,18.0,64,0.00,,,0.00,,2013-03-04 15:42:00,
2013-03-04 10:52:00,32.0,21.0,29.80,NNW,343,4.0,11.0,64,0.00,,,0.00,,2013-03-04 15:52:00,
2013-03-04 11:02:00,32.0,21.0,29.80,NNW,346,7.0,13.0,64,0.00,,,0.00,,2013-03-04 16:02:00,
2013-03-04 11:11:00,32.0,21.0,29.80,NNW,346,7.0,13.0,64,0.00,,,0.00,,2013-03-04 16:11:00,
2013-03-04 11:21:00,32.0,22.0,29.80,North,5,2.0,9.0,65,0.00,,,0.00,,2013-03-04 16:21:00,
2013-03-04 11:32:00,32.0,21.0,29.79,NNW,339,6.0,11.0,64,0.00,,,0.00,,2013-03-04 16:32:00,
2013-03-04 11:42:00,32.0,21.0,29.79,NNW,339,6.0,11.0,64,0.00,,,0.00,,2013-03-04 16:42:00,
2013-03-04 11:52:00,33.0,22.0,29.79,NNW,343,4.0,15.0,63,0.00,,,0.00,,2013-03-04 16:52:00,
2013-03-04 12:02:00,34.0,22.0,29.79,NNW,345,10.0,17.0,62,0.00,,,0.00,,2013-03-04 17:02:00,
2013-03-04 12:11:00,34.0,22.0,29.79,NNW,345,10.0,17.0,62,0.00,,,0.00,,2013-03-04 17:11:00,
2013-03-04 12:22:00,35.0,23.0,29.79,NNW,337,7.0,15.0,60,0.00,,,0.00,,2013-03-04 17:22:00,
2013-03-04 12:32:00,35.0,23.0,29.79,NNW,338,4.0,14.0,61,0.00,,,0.00,,2013-03-04 17:32:00,
2013-03-04 12:42:00,35.0,23.0,29.79,NNW,338,4.0,14.0,61,0.00,,,0.00,,2013-03-04 17:42:00,
2013-03-04 12:52:00,36.0,24.0,29.79,NNW,343,7.0,14.0,62,0.00,,,0.00,,2013-03-04 17:52:00,
2013-03-04 13:01:00,36.0,24.0,29.79,NNW,347,10.0,17.0,61,0.00,,,0.00,,2013-03-04 18:01:00,
2013-03-04 13:11:00,36.0,24.0,29.79,NNW,347,10.0,17.0,61,0.00,,,0.00,,2013-03-04 18:11:00,
2013-03-04 13:22:00,37.0,24.0,29.77,NNW,337,5.0,14.0,60,0.00,,,0.00,,2013-03-04 18:22:00,
2013-03-04 13:32:00,37.0,24.0,29.77,North,351,6.0,12.0,59,0.00,,,0.00,,2013-03-04 18:32:00,
2013-03-04 13:42:00,37.0,24.0,29.77,North,351,6.0,12.0,59,0.00,,,0.00,,2013-03-04 18:42:00,
2013-03-04 13:52:00,37.0,24.0,29.77,NNW,346,7.0,16.0,59,0.00,,,0.00,,2013-03-04 18:52:00,
2013-03-04 14:02:00,37.0,24.0,29.77,NW,316,3.0,15.0,59,0.00,,,0.00,,2013-03-04 19:02:00,
2013-03-04 14:11:00,37.0,24.0,29.77,NW,316,3.0,15.0,59,0.00,,,0.00,,2013-03-04 19:11:00,
2013-03-04 14:22:00,36.0,23.0,29.77,North,1,5.0,16.0,60,0.00,,,0.00,,2013-03-04 19:22:00,
2013-03-04 14:32:00,37.0,24.0,29.76,NNW,348,6.0,17.0,60,0.00,,,0.00,,2013-03-04 19:32:00,
2013-03-04 14:42:00,37.0,24.0,29.76,NNW,348,6.0,17.0,60,0.00,,,0.00,,2013-03-04 19:42:00,
2013-03-04 14:52:00,37.0,24.0,29.76,NNW,347,6.0,15.0,60,0.00,,,0.00,,2013-03-04 19:52:00,
2013-03-04 15:02:00,37.0,24.0,29.77,NNW,340,2.0,13.0,60,0.00,,,0.00,,2013-03-04 20:02:00,
2013-03-04 15:11:00,38.0,25.0,29.76,NNW,348,2.0,13.0,59,0.00,,,0.00,,2013-03-04 20:11:00,
2013-03-04 15:22:00,38.0,25.0,29.76,NNW,348,2.0,13.0,59,0.00,,,0.00,,2013-03-04 20:22:00,
2013-03-04 15:32:00,38.0,25.0,29.76,NNW,338,2.0,10.0,58,0.00,,,0.00,,2013-03-04 20:32:00,
2013-03-04 15:42:00,38.0,25.0,29.76,NNW,338,2.0,10.0,58,0.00,,,0.00,,2013-03-04 20:42:00,
2013-03-04 15:53:00,38.0,25.0,29.76,NNW,345,2.0,11.0,59,0.00,,,0.00,,2013-03-04 20:53:00,
2013-03-04 16:02:00,38.0,25.0,29.77,NNW,345,5.0,13.0,59,0.00,,,0.00,,2013-03-04 21:02:00,
2013-03-04 16:12:00,38.0,25.0,29.77,NNW,345,5.0,13.0,59,0.00,,,0.00,,2013-03-04 21:12:00,
2013-03-04 16:22:00,36.0,23.0,29.77,North,352,6.0,13.0,60,0.00,,,0.00,,2013-03-04 21:22:00,
2013-03-04 16:32:00,35.0,23.0,29.78,NNW,337,6.0,17.0,62,0.00,,,0.00,,2013-03-04 21:32:00,
2013-03-04 16:42:00,35.0,23.0,29.78,NNW,337,6.0,17.0,62,0.00,,,0.00,,2013-03-04 21:42:00,
2013-03-04 16:53:00,35.0,23.0,29.77,NNW,345,9.0,16.0,62,0.00,,,0.00,,2013-03-04 21:53:00,
2013-03-04 17:02:00,35.0,24.0,29.79,NNW,337,11.0,19.0,63,0.00,,,0.00,,2013-03-04 22:02:00,
2013-03-04 17:12:00,35.0,24.0,29.79,NNW,337,11.0,19.0,63,0.00,,,0.00,,2013-03-04 22:12:00,
2013-03-04 17:22:00,34.0,23.0,29.79,NNW,347,6.0,16.0,63,0.00,,,0.00,,2013-03-04 22:22:00,
2013-03-04 17:32:00,34.0,23.0,29.79,NNW,347,3.0,11.0,64,0.00,,,0.00,,2013-03-04 22:32:00,
2013-03-04 17:42:00,34.0,23.0,29.79,NNW,347,3.0,11.0,64,0.00,,,0.00,,2013-03-04 22:42:00,
2013-03-04 17:52:00,34.0,23.0,29.80,NNW,335,5.0,12.0,64,0.00,,,0.00,,2013-03-04 22:52:00,
2013-03-04 18:02:00,34.0,23.0,29.80,NNW,338,3.0,7.0,65,0.00,,,0.00,,2013-03-04 23:02:00,
2013-03-04 18:11:00,34.0,23.0,29.80,NNW,338,3.0,7.0,65,0.00,,,0.00,,2013-03-04 23:11:00,
2013-03-04 18:22:00,33.0,23.0,29.80,NNW,336,1.0,8.0,65,0.00,,,0.00,,2013-03-04 23:22:00,
2013-03-04 18:32:00,33.0,23.0,29.81,North,0,0.0,6.0,66,0.00,,,0.00,,2013-03-04 23:32:00,
2013-03-04 18:42:00,33.0,23.0,29.81,North,0,0.0,6.0,66,0.00,,,0.00,,2013-03-04 23:42:00,
2013-03-04 18:52:00,33.0,23.0,29.82,NNW,348,2.0,9.0,67,0.00,,,0.00,,2013-03-04 23:52:00,
2013-03-04 19:02:00,33.0,23.0,29.83,North,353,3.0,10.0,67,0.00,,,0.00,,2013-03-05 00:02:00,
2013-03-04 19:12:00,33.0,23.0,29.83,North,353,3.0,10.0,67,0.00,,,0.00,,2013-03-05 00:12:00,
2013-03-04 19:22:00,32.0,23.0,29.83,NNW,336,2.0,8.0,68,0.00,,,0.00,,2013-03-05 00:22:00,
2013-03-04 19:32:00,32.0,23.0,29.83,North,0,0.0,5.0,68,0.00,,,0.00,,2013-03-05 00:32:00,
2013-03-04 19:42:00,32.0,23.0,29.83,North,0,0.0,5.0,68,0.00,,,0.00,,2013-03-05 00:42:00,
2013-03-04 19:52:00,32.0,23.0,29.77,North,0,0.0,3.0,68,0.00,,,0.00,,2013-03-05 00:52:00,
2013-03-04 20:01:00,32.0,23.0,29.80,North,0,0.0,6.0,68,0.00,,,0.00,,2013-03-05 01:01:00,
2013-03-04 20:12:00,32.0,23.0,29.80,North,0,0.0,6.0,68,0.00,,,0.00,,2013-03-05 01:12:00,
2013-03-04 20:22:00,31.0,22.0,29.58,NNW,342,1.0,10.0,69,0.00,,,0.00,,2013-03-05 01:22:00,
2013-03-04 20:32:00,31.0,22.0,29.46,North,357,1.0,6.0,69,0.00,,,0.00,,2013-03-05 01:32:00,
2013-03-04 20:42:00,31.0,22.0,29.46,North,357,1.0,6.0,69,0.00,,,0.00,,2013-03-05 01:42:00,
2013-03-04 20:52:00,31.0,22.0,29.75,North,0,0.0,4.0,70,0.00,,,0.00,,2013-03-05 01:52:00,
2013-03-04 21:01:00,31.0,22.0,29.79,North,0,0.0,4.0,70,0.00,,,0.00,,2013-03-05 02:01:00,
2013-03-04 21:11:00,31.0,22.0,29.79,North,0,0.0,4.0,70,0.00,,,0.00,,2013-03-05 02:11:00,
2013-03-04 21:22:00,31.0,23.0,29.54,NNW,346,3.0,5.0,71,0.00,,,0.00,,2013-03-05 02:22:00,
2013-03-04 21:32:00,31.0,23.0,29.68,NNW,344,1.0,6.0,71,0.00,,,0.00,,2013-03-05 02:32:00,
2013-03-04 21:42:00,31.0,23.0,29.68,NNW,344,1.0,6.0,71,0.00,,,0.00,,2013-03-05 02:42:00,
2013-03-04 21:53:00,31.0,23.0,29.69,NNW,339,3.0,8.0,71,0.00,,,0.00,,2013-03-05 02:53:00,
2013-03-04 22:02:00,31.0,23.0,29.69,North,0,0.0,3.0,71,0.00,,,0.00,,2013-03-05 03:02:00,
2013-03-04 22:12:00,31.0,23.0,29.44,NNW,345,2.0,5.0,71,0.00,,,0.00,,2013-03-05 03:12:00,
2013-03-04 22:22:00,31.0,23.0,29.44,NNW,345,2.0,5.0,71,0.00,,,0.00,,2013-03-05 03:22:00,
2013-03-04 22:32:00,30.0,22.0,29.53,NNW,344,1.0,4.0,72,0.00,,,0.00,,2013-03-05 03:32:00,
2013-03-04 22:42:00,30.0,22.0,29.53,NNW,344,1.0,4.0,72,0.00,,,0.00,,2013-03-05 03:42:00,
2013-03-04 22:52:00,30.0,22.0,29.70,NNW,340,1.0,11.0,72,0.00,,,0.00,,2013-03-05 03:52:00,
2013-03-04 23:02:00,30.0,22.0,29.83,North,0,0.0,4.0,72,0.00,,,0.00,,2013-03-05 04:02:00,
2013-03-04 23:12:00,30.0,22.0,29.83,North,0,0.0,4.0,72,0.00,,,0.00,,2013-03-05 04:12:00,
2013-03-04 23:22:00,30.0,22.0,29.70,North,0,0.0,6.0,72,0.00,,,0.00,,2013-03-05 04:22:00,
2013-03-04 23:32:00,30.0,22.0,29.83,North,350,1.0,6.0,72,0.00,,,0.00,,2013-03-05 04:32:00,
2013-03-04 23:42:00,30.0,22.0,29.83,North,350,1.0,6.0,72,0.00,,,0.00,,2013-03-05 04:42:00,
2013-03-04 23:52:00,30.0,22.0,29.70,NNW,340,2.0,7.0,72,0.00,,,0.00,,2013-03-05 04:52:00,